sensor_id;sensor_type;location;lat;lon;timestamp;P1;durP1;ratioP1;P2;durP2;ratioP2
32138;SDS011;18644;48.700;9.210;2024-03-02T00:01:35;8.48;;;5.68;;
32138;SDS011;18644;48.700;9.210;2024-03-02T00:04:03;8.30;;;5.75;;
32138;SDS011;18644;48.700;9.210;2024-03-02T00:06:31;9.25;;;6.03;;
32138;SDS011;18644;48.700;9.210;2024-03-02T00:09:00;7.88;;;5.63;;
32138;SDS011;18644;48.700;9.210;2024-03-02T00:11:27;7.93;;;5.60;;
32138;SDS011;18644;48.700;9.210;2024-03-02T00:13:54;9.88;;;5.90;;
32138;SDS011;18644;48.700;9.210;2024-03-02T00:16:20;8.95;;;5.90;;
32138;SDS011;18644;48.700;9.210;2024-03-02T00:18:49;8.63;;;6.00;;
32138;SDS011;18644;48.700;9.210;2024-03-02T00:21:16;8.00;;;5.60;;
32138;SDS011;18644;48.700;9.210;2024-03-02T00:23:45;8.38;;;5.63;;
32138;SDS011;18644;48.700;9.210;2024-03-02T00:26:13;9.60;;;6.13;;
32138;SDS011;18644;48.700;9.210;2024-03-02T00:28:42;7.97;;;5.93;;
32138;SDS011;18644;48.700;9.210;2024-03-02T00:31:10;6.65;;;5.10;;
32138;SDS011;18644;48.700;9.210;2024-03-02T00:33:40;9.60;;;6.25;;
32138;SDS011;18644;48.700;9.210;2024-03-02T00:36:09;8.55;;;5.75;;
32138;SDS011;18644;48.700;9.210;2024-03-02T00:38:42;8.60;;;6.10;;
32138;SDS011;18644;48.700;9.210;2024-03-02T00:41:17;7.82;;;5.40;;
32138;SDS011;18644;48.700;9.210;2024-03-02T00:43:50;7.57;;;5.72;;
32138;SDS011;18644;48.700;9.210;2024-03-02T00:46:24;8.40;;;5.45;;
32138;SDS011;18644;48.700;9.210;2024-03-02T00:48:52;9.40;;;5.55;;
32138;SDS011;18644;48.700;9.210;2024-03-02T00:51:21;8.18;;;5.70;;
32138;SDS011;18644;48.700;9.210;2024-03-02T00:53:49;8.50;;;5.85;;
32138;SDS011;18644;48.700;9.210;2024-03-02T00:56:18;7.65;;;5.00;;
32138;SDS011;18644;48.700;9.210;2024-03-02T00:58:46;12.10;;;5.70;;
32138;SDS011;18644;48.700;9.210;2024-03-02T01:01:13;9.20;;;5.93;;
32138;SDS011;18644;48.700;9.210;2024-03-02T01:03:41;8.07;;;5.65;;
32138;SDS011;18644;48.700;9.210;2024-03-02T01:06:08;10.00;;;5.93;;
32138;SDS011;18644;48.700;9.210;2024-03-02T01:08:35;7.53;;;5.85;;
32138;SDS011;18644;48.700;9.210;2024-03-02T01:11:02;8.23;;;5.45;;
32138;SDS011;18644;48.700;9.210;2024-03-02T01:13:31;9.27;;;5.95;;
32138;SDS011;18644;48.700;9.210;2024-03-02T01:15:59;7.35;;;5.30;;
32138;SDS011;18644;48.700;9.210;2024-03-02T01:18:27;7.05;;;5.20;;
32138;SDS011;18644;48.700;9.210;2024-03-02T01:20:54;8.10;;;5.53;;
32138;SDS011;18644;48.700;9.210;2024-03-02T01:23:21;6.97;;;4.88;;
32138;SDS011;18644;48.700;9.210;2024-03-02T01:25:48;7.85;;;5.05;;
32138;SDS011;18644;48.700;9.210;2024-03-02T01:28:15;7.22;;;5.05;;
32138;SDS011;18644;48.700;9.210;2024-03-02T01:30:44;10.05;;;6.05;;
32138;SDS011;18644;48.700;9.210;2024-03-02T01:33:11;7.60;;;5.05;;
32138;SDS011;18644;48.700;9.210;2024-03-02T01:35:38;5.88;;;4.63;;
32138;SDS011;18644;48.700;9.210;2024-03-02T01:38:04;6.40;;;4.18;;
32138;SDS011;18644;48.700;9.210;2024-03-02T01:40:32;9.05;;;5.78;;
32138;SDS011;18644;48.700;9.210;2024-03-02T01:43:00;6.78;;;4.90;;
32138;SDS011;18644;48.700;9.210;2024-03-02T01:45:27;6.65;;;4.55;;
32138;SDS011;18644;48.700;9.210;2024-03-02T01:47:56;7.70;;;5.32;;
32138;SDS011;18644;48.700;9.210;2024-03-02T01:50:26;8.18;;;5.90;;
32138;SDS011;18644;48.700;9.210;2024-03-02T01:52:54;9.57;;;5.80;;
32138;SDS011;18644;48.700;9.210;2024-03-02T01:55:22;10.85;;;6.72;;
32138;SDS011;18644;48.700;9.210;2024-03-02T01:57:49;10.85;;;6.03;;
32138;SDS011;18644;48.700;9.210;2024-03-02T02:00:17;8.68;;;6.15;;
32138;SDS011;18644;48.700;9.210;2024-03-02T02:02:45;8.68;;;6.07;;
32138;SDS011;18644;48.700;9.210;2024-03-02T02:05:13;11.02;;;7.40;;
32138;SDS011;18644;48.700;9.210;2024-03-02T02:07:41;8.98;;;6.30;;
32138;SDS011;18644;48.700;9.210;2024-03-02T02:10:08;9.05;;;5.40;;
32138;SDS011;18644;48.700;9.210;2024-03-02T02:12:35;7.50;;;5.65;;
32138;SDS011;18644;48.700;9.210;2024-03-02T02:15:03;9.60;;;6.05;;
32138;SDS011;18644;48.700;9.210;2024-03-02T02:17:30;7.35;;;5.32;;
32138;SDS011;18644;48.700;9.210;2024-03-02T02:19:57;6.35;;;4.85;;
32138;SDS011;18644;48.700;9.210;2024-03-02T02:22:25;9.05;;;5.93;;
32138;SDS011;18644;48.700;9.210;2024-03-02T02:24:52;9.20;;;5.88;;
32138;SDS011;18644;48.700;9.210;2024-03-02T02:27:19;8.40;;;6.30;;
32138;SDS011;18644;48.700;9.210;2024-03-02T02:29:46;9.65;;;6.22;;
32138;SDS011;18644;48.700;9.210;2024-03-02T02:32:13;10.60;;;6.40;;
32138;SDS011;18644;48.700;9.210;2024-03-02T02:34:40;9.40;;;6.07;;
32138;SDS011;18644;48.700;9.210;2024-03-02T02:37:07;10.07;;;6.80;;
32138;SDS011;18644;48.700;9.210;2024-03-02T02:39:35;10.80;;;7.05;;
32138;SDS011;18644;48.700;9.210;2024-03-02T02:42:02;8.43;;;5.95;;
32138;SDS011;18644;48.700;9.210;2024-03-02T02:44:29;9.77;;;6.45;;
32138;SDS011;18644;48.700;9.210;2024-03-02T02:46:56;9.98;;;6.82;;
32138;SDS011;18644;48.700;9.210;2024-03-02T02:49:22;9.38;;;6.47;;
32138;SDS011;18644;48.700;9.210;2024-03-02T02:51:50;9.73;;;6.55;;
32138;SDS011;18644;48.700;9.210;2024-03-02T02:54:17;10.13;;;6.85;;
32138;SDS011;18644;48.700;9.210;2024-03-02T02:56:45;9.85;;;6.45;;
32138;SDS011;18644;48.700;9.210;2024-03-02T02:59:12;8.85;;;6.30;;
32138;SDS011;18644;48.700;9.210;2024-03-02T03:01:39;11.10;;;6.20;;
32138;SDS011;18644;48.700;9.210;2024-03-02T03:04:05;12.57;;;6.15;;
32138;SDS011;18644;48.700;9.210;2024-03-02T03:06:32;8.55;;;6.00;;
32138;SDS011;18644;48.700;9.210;2024-03-02T03:08:59;8.00;;;5.38;;
32138;SDS011;18644;48.700;9.210;2024-03-02T03:11:27;9.32;;;6.38;;
32138;SDS011;18644;48.700;9.210;2024-03-02T03:13:55;8.75;;;6.38;;
32138;SDS011;18644;48.700;9.210;2024-03-02T03:16:22;9.13;;;6.38;;
32138;SDS011;18644;48.700;9.210;2024-03-02T03:18:49;10.52;;;6.40;;
32138;SDS011;18644;48.700;9.210;2024-03-02T03:21:18;11.65;;;7.25;;
32138;SDS011;18644;48.700;9.210;2024-03-02T03:23:45;10.32;;;6.60;;
32138;SDS011;18644;48.700;9.210;2024-03-02T03:26:12;7.32;;;5.38;;
32138;SDS011;18644;48.700;9.210;2024-03-02T03:28:39;8.73;;;5.82;;
32138;SDS011;18644;48.700;9.210;2024-03-02T03:31:07;9.32;;;5.53;;
32138;SDS011;18644;48.700;9.210;2024-03-02T03:33:34;10.07;;;6.15;;
32138;SDS011;18644;48.700;9.210;2024-03-02T03:36:01;7.22;;;5.18;;
32138;SDS011;18644;48.700;9.210;2024-03-02T03:38:28;8.75;;;5.50;;
32138;SDS011;18644;48.700;9.210;2024-03-02T03:40:55;8.95;;;5.22;;
32138;SDS011;18644;48.700;9.210;2024-03-02T03:43:22;7.78;;;5.53;;
32138;SDS011;18644;48.700;9.210;2024-03-02T03:45:49;8.27;;;5.57;;
32138;SDS011;18644;48.700;9.210;2024-03-02T03:48:18;6.60;;;5.00;;
32138;SDS011;18644;48.700;9.210;2024-03-02T03:50:45;8.60;;;5.20;;
32138;SDS011;18644;48.700;9.210;2024-03-02T03:53:12;6.68;;;4.50;;
32138;SDS011;18644;48.700;9.210;2024-03-02T03:55:39;6.07;;;4.15;;
32138;SDS011;18644;48.700;9.210;2024-03-02T03:58:06;5.95;;;4.22;;
32138;SDS011;18644;48.700;9.210;2024-03-02T04:00:33;8.05;;;5.18;;
32138;SDS011;18644;48.700;9.210;2024-03-02T04:03:00;7.95;;;5.07;;
32138;SDS011;18644;48.700;9.210;2024-03-02T04:05:29;9.75;;;5.20;;
32138;SDS011;18644;48.700;9.210;2024-03-02T04:07:55;9.02;;;5.53;;
32138;SDS011;18644;48.700;9.210;2024-03-02T04:10:22;7.05;;;4.93;;
32138;SDS011;18644;48.700;9.210;2024-03-02T04:12:49;6.32;;;4.65;;
32138;SDS011;18644;48.700;9.210;2024-03-02T04:15:16;5.78;;;4.22;;
32138;SDS011;18644;48.700;9.210;2024-03-02T04:17:43;6.40;;;4.50;;
32138;SDS011;18644;48.700;9.210;2024-03-02T04:20:11;7.70;;;4.53;;
32138;SDS011;18644;48.700;9.210;2024-03-02T04:22:39;6.05;;;4.35;;
32138;SDS011;18644;48.700;9.210;2024-03-02T04:25:07;6.22;;;4.60;;
32138;SDS011;18644;48.700;9.210;2024-03-02T04:27:34;6.57;;;4.50;;
32138;SDS011;18644;48.700;9.210;2024-03-02T04:30:01;7.53;;;5.22;;
32138;SDS011;18644;48.700;9.210;2024-03-02T04:32:30;8.18;;;4.18;;
32138;SDS011;18644;48.700;9.210;2024-03-02T04:34:57;5.68;;;3.80;;
32138;SDS011;18644;48.700;9.210;2024-03-02T04:37:24;5.13;;;3.60;;
32138;SDS011;18644;48.700;9.210;2024-03-02T04:39:52;6.55;;;4.45;;
32138;SDS011;18644;48.700;9.210;2024-03-02T04:42:19;5.95;;;3.90;;
32138;SDS011;18644;48.700;9.210;2024-03-02T04:44:47;6.18;;;4.50;;
32138;SDS011;18644;48.700;9.210;2024-03-02T04:47:14;6.32;;;4.28;;
32138;SDS011;18644;48.700;9.210;2024-03-02T04:49:41;6.88;;;5.00;;
32138;SDS011;18644;48.700;9.210;2024-03-02T04:52:09;6.53;;;4.20;;
32138;SDS011;18644;48.700;9.210;2024-03-02T04:54:36;6.45;;;3.83;;
32138;SDS011;18644;48.700;9.210;2024-03-02T04:57:24;5.97;;;3.72;;
32138;SDS011;18644;48.700;9.210;2024-03-02T04:59:51;9.38;;;3.75;;
32138;SDS011;18644;48.700;9.210;2024-03-02T05:02:18;5.78;;;3.67;;
32138;SDS011;18644;48.700;9.210;2024-03-02T05:04:45;5.38;;;4.13;;
32138;SDS011;18644;48.700;9.210;2024-03-02T05:07:13;5.88;;;4.03;;
32138;SDS011;18644;48.700;9.210;2024-03-02T05:09:41;5.80;;;3.92;;
32138;SDS011;18644;48.700;9.210;2024-03-02T05:12:07;5.57;;;4.07;;
32138;SDS011;18644;48.700;9.210;2024-03-02T05:15:07;6.70;;;4.07;;
32138;SDS011;18644;48.700;9.210;2024-03-02T05:17:35;5.88;;;3.63;;
32138;SDS011;18644;48.700;9.210;2024-03-02T05:20:02;7.30;;;4.28;;
32138;SDS011;18644;48.700;9.210;2024-03-02T05:22:29;5.15;;;3.92;;
32138;SDS011;18644;48.700;9.210;2024-03-02T05:24:56;6.85;;;4.10;;
32138;SDS011;18644;48.700;9.210;2024-03-02T05:27:25;6.43;;;4.57;;
32138;SDS011;18644;48.700;9.210;2024-03-02T05:29:51;6.53;;;4.47;;
32138;SDS011;18644;48.700;9.210;2024-03-02T05:32:20;6.07;;;3.55;;
32138;SDS011;18644;48.700;9.210;2024-03-02T05:34:46;5.85;;;4.35;;
32138;SDS011;18644;48.700;9.210;2024-03-02T05:37:13;6.20;;;4.53;;
32138;SDS011;18644;48.700;9.210;2024-03-02T05:39:40;5.93;;;4.18;;
32138;SDS011;18644;48.700;9.210;2024-03-02T05:42:08;6.68;;;4.20;;
32138;SDS011;18644;48.700;9.210;2024-03-02T05:44:35;5.85;;;3.85;;
32138;SDS011;18644;48.700;9.210;2024-03-02T05:47:17;5.97;;;3.60;;
32138;SDS011;18644;48.700;9.210;2024-03-02T05:49:44;5.53;;;4.30;;
32138;SDS011;18644;48.700;9.210;2024-03-02T05:52:11;7.15;;;4.57;;
32138;SDS011;18644;48.700;9.210;2024-03-02T05:54:38;5.50;;;4.00;;
32138;SDS011;18644;48.700;9.210;2024-03-02T05:57:05;8.32;;;4.88;;
32138;SDS011;18644;48.700;9.210;2024-03-02T05:59:51;6.70;;;4.47;;
32138;SDS011;18644;48.700;9.210;2024-03-02T06:02:20;9.45;;;5.13;;
32138;SDS011;18644;48.700;9.210;2024-03-02T06:04:47;8.77;;;4.93;;
32138;SDS011;18644;48.700;9.210;2024-03-02T06:07:13;8.13;;;5.22;;
32138;SDS011;18644;48.700;9.210;2024-03-02T06:09:40;7.15;;;4.60;;
32138;SDS011;18644;48.700;9.210;2024-03-02T06:12:09;6.13;;;4.45;;
32138;SDS011;18644;48.700;9.210;2024-03-02T06:14:36;4.70;;;4.00;;
32138;SDS011;18644;48.700;9.210;2024-03-02T06:17:03;7.53;;;4.60;;
32138;SDS011;18644;48.700;9.210;2024-03-02T06:19:32;7.38;;;5.25;;
32138;SDS011;18644;48.700;9.210;2024-03-02T06:21:59;9.15;;;5.25;;
32138;SDS011;18644;48.700;9.210;2024-03-02T06:24:26;7.60;;;5.15;;
32138;SDS011;18644;48.700;9.210;2024-03-02T06:26:53;9.07;;;5.78;;
32138;SDS011;18644;48.700;9.210;2024-03-02T06:29:20;8.77;;;5.60;;
32138;SDS011;18644;48.700;9.210;2024-03-02T06:31:47;9.38;;;5.75;;
32138;SDS011;18644;48.700;9.210;2024-03-02T06:34:13;6.20;;;4.40;;
32138;SDS011;18644;48.700;9.210;2024-03-02T06:36:42;9.88;;;4.95;;
32138;SDS011;18644;48.700;9.210;2024-03-02T06:39:09;7.80;;;4.93;;
32138;SDS011;18644;48.700;9.210;2024-03-02T06:41:37;10.05;;;5.07;;
32138;SDS011;18644;48.700;9.210;2024-03-02T06:44:04;9.30;;;5.60;;
32138;SDS011;18644;48.700;9.210;2024-03-02T06:46:31;8.05;;;5.07;;
32138;SDS011;18644;48.700;9.210;2024-03-02T06:48:58;8.60;;;5.40;;
32138;SDS011;18644;48.700;9.210;2024-03-02T06:51:27;10.23;;;5.85;;
32138;SDS011;18644;48.700;9.210;2024-03-02T06:53:55;9.27;;;5.60;;
32138;SDS011;18644;48.700;9.210;2024-03-02T06:56:22;9.30;;;6.10;;
32138;SDS011;18644;48.700;9.210;2024-03-02T06:58:49;8.88;;;5.70;;
32138;SDS011;18644;48.700;9.210;2024-03-02T07:01:16;10.75;;;5.97;;
32138;SDS011;18644;48.700;9.210;2024-03-02T07:03:43;9.02;;;5.38;;
32138;SDS011;18644;48.700;9.210;2024-03-02T07:06:10;9.10;;;5.85;;
32138;SDS011;18644;48.700;9.210;2024-03-02T07:08:37;8.07;;;5.53;;
32138;SDS011;18644;48.700;9.210;2024-03-02T07:11:05;9.95;;;5.65;;
32138;SDS011;18644;48.700;9.210;2024-03-02T07:13:32;9.90;;;6.30;;
32138;SDS011;18644;48.700;9.210;2024-03-02T07:15:59;8.35;;;5.40;;
32138;SDS011;18644;48.700;9.210;2024-03-02T07:18:47;7.20;;;5.22;;
32138;SDS011;18644;48.700;9.210;2024-03-02T07:21:16;8.98;;;5.47;;
32138;SDS011;18644;48.700;9.210;2024-03-02T07:23:44;10.65;;;6.50;;
32138;SDS011;18644;48.700;9.210;2024-03-02T07:26:12;8.82;;;5.95;;
32138;SDS011;18644;48.700;9.210;2024-03-02T07:28:40;9.52;;;6.22;;
32138;SDS011;18644;48.700;9.210;2024-03-02T07:31:07;11.65;;;6.60;;
32138;SDS011;18644;48.700;9.210;2024-03-02T07:33:35;9.93;;;6.47;;
32138;SDS011;18644;48.700;9.210;2024-03-02T07:36:02;12.13;;;7.45;;
32138;SDS011;18644;48.700;9.210;2024-03-02T07:38:29;10.20;;;7.32;;
32138;SDS011;18644;48.700;9.210;2024-03-02T07:40:58;12.95;;;8.85;;
32138;SDS011;18644;48.700;9.210;2024-03-02T07:43:26;15.10;;;8.18;;
32138;SDS011;18644;48.700;9.210;2024-03-02T07:45:53;13.82;;;8.43;;
32138;SDS011;18644;48.700;9.210;2024-03-02T07:48:20;16.90;;;9.88;;
32138;SDS011;18644;48.700;9.210;2024-03-02T07:50:47;15.50;;;9.45;;
32138;SDS011;18644;48.700;9.210;2024-03-02T07:53:14;18.58;;;10.70;;
32138;SDS011;18644;48.700;9.210;2024-03-02T07:55:41;19.20;;;11.65;;
32138;SDS011;18644;48.700;9.210;2024-03-02T07:58:09;17.35;;;11.73;;
32138;SDS011;18644;48.700;9.210;2024-03-02T08:00:39;14.50;;;9.45;;
32138;SDS011;18644;48.700;9.210;2024-03-02T08:03:07;18.88;;;10.48;;
32138;SDS011;18644;48.700;9.210;2024-03-02T08:05:36;20.13;;;9.73;;
32138;SDS011;18644;48.700;9.210;2024-03-02T08:08:04;19.00;;;10.57;;
32138;SDS011;18644;48.700;9.210;2024-03-02T08:10:31;16.08;;;9.82;;
32138;SDS011;18644;48.700;9.210;2024-03-02T08:12:58;15.27;;;9.48;;
32138;SDS011;18644;48.700;9.210;2024-03-02T08:15:25;18.75;;;11.25;;
32138;SDS011;18644;48.700;9.210;2024-03-02T08:17:54;20.05;;;12.63;;
32138;SDS011;18644;48.700;9.210;2024-03-02T08:20:21;17.30;;;11.00;;
32138;SDS011;18644;48.700;9.210;2024-03-02T08:22:48;14.82;;;9.48;;
32138;SDS011;18644;48.700;9.210;2024-03-02T08:25:15;14.93;;;9.00;;
32138;SDS011;18644;48.700;9.210;2024-03-02T08:27:42;11.82;;;7.85;;
32138;SDS011;18644;48.700;9.210;2024-03-02T08:30:10;10.27;;;7.57;;
32138;SDS011;18644;48.700;9.210;2024-03-02T08:32:38;10.18;;;7.05;;
32138;SDS011;18644;48.700;9.210;2024-03-02T08:35:08;11.20;;;7.20;;
32138;SDS011;18644;48.700;9.210;2024-03-02T08:37:36;11.63;;;7.85;;
32138;SDS011;18644;48.700;9.210;2024-03-02T08:40:06;11.48;;;6.93;;
32138;SDS011;18644;48.700;9.210;2024-03-02T08:42:34;9.18;;;6.60;;
32138;SDS011;18644;48.700;9.210;2024-03-02T08:45:01;9.13;;;6.50;;
32138;SDS011;18644;48.700;9.210;2024-03-02T08:47:28;7.25;;;5.50;;
32138;SDS011;18644;48.700;9.210;2024-03-02T08:49:55;7.72;;;5.28;;
32138;SDS011;18644;48.700;9.210;2024-03-02T08:52:24;7.28;;;5.05;;
32138;SDS011;18644;48.700;9.210;2024-03-02T08:54:51;6.38;;;4.53;;
32138;SDS011;18644;48.700;9.210;2024-03-02T08:57:18;6.80;;;4.95;;
32138;SDS011;18644;48.700;9.210;2024-03-02T08:59:46;7.13;;;5.40;;
32138;SDS011;18644;48.700;9.210;2024-03-02T09:02:13;8.45;;;4.93;;
32138;SDS011;18644;48.700;9.210;2024-03-02T09:04:40;6.05;;;4.75;;
32138;SDS011;18644;48.700;9.210;2024-03-02T09:07:07;5.22;;;3.97;;
32138;SDS011;18644;48.700;9.210;2024-03-02T09:09:35;6.57;;;4.72;;
32138;SDS011;18644;48.700;9.210;2024-03-02T09:12:04;5.88;;;4.57;;
32138;SDS011;18644;48.700;9.210;2024-03-02T09:14:31;6.45;;;4.35;;
32138;SDS011;18644;48.700;9.210;2024-03-02T09:16:58;4.97;;;4.05;;
32138;SDS011;18644;48.700;9.210;2024-03-02T09:19:25;6.50;;;4.82;;
32138;SDS011;18644;48.700;9.210;2024-03-02T09:21:52;7.28;;;5.07;;
32138;SDS011;18644;48.700;9.210;2024-03-02T09:24:20;5.97;;;4.32;;
32138;SDS011;18644;48.700;9.210;2024-03-02T09:26:48;6.38;;;4.20;;
32138;SDS011;18644;48.700;9.210;2024-03-02T09:29:15;5.45;;;4.15;;
32138;SDS011;18644;48.700;9.210;2024-03-02T09:31:42;6.03;;;4.13;;
32138;SDS011;18644;48.700;9.210;2024-03-02T09:34:10;4.65;;;3.60;;
32138;SDS011;18644;48.700;9.210;2024-03-02T09:36:37;6.20;;;3.58;;
32138;SDS011;18644;48.700;9.210;2024-03-02T09:39:04;4.75;;;3.50;;
32138;SDS011;18644;48.700;9.210;2024-03-02T09:41:31;4.57;;;3.35;;
32138;SDS011;18644;48.700;9.210;2024-03-02T09:44:00;4.47;;;3.10;;
32138;SDS011;18644;48.700;9.210;2024-03-02T09:46:28;4.15;;;3.35;;
32138;SDS011;18644;48.700;9.210;2024-03-02T09:48:56;4.20;;;3.25;;
32138;SDS011;18644;48.700;9.210;2024-03-02T09:51:22;4.07;;;3.38;;
32138;SDS011;18644;48.700;9.210;2024-03-02T09:53:49;4.70;;;3.50;;
32138;SDS011;18644;48.700;9.210;2024-03-02T09:56:18;3.70;;;3.10;;
32138;SDS011;18644;48.700;9.210;2024-03-02T09:58:45;3.53;;;2.95;;
32138;SDS011;18644;48.700;9.210;2024-03-02T10:01:13;3.42;;;2.70;;
32138;SDS011;18644;48.700;9.210;2024-03-02T10:03:40;3.78;;;3.33;;
32138;SDS011;18644;48.700;9.210;2024-03-02T10:06:18;4.38;;;3.35;;
32138;SDS011;18644;48.700;9.210;2024-03-02T10:08:46;3.75;;;3.10;;
32138;SDS011;18644;48.700;9.210;2024-03-02T10:11:25;3.38;;;3.03;;
32138;SDS011;18644;48.700;9.210;2024-03-02T10:14:04;3.88;;;3.38;;
32138;SDS011;18644;48.700;9.210;2024-03-02T10:16:35;4.00;;;3.15;;
32138;SDS011;18644;48.700;9.210;2024-03-02T10:19:14;4.47;;;3.42;;
32138;SDS011;18644;48.700;9.210;2024-03-02T10:21:43;3.65;;;3.25;;
32138;SDS011;18644;48.700;9.210;2024-03-02T10:24:11;3.85;;;3.17;;
32138;SDS011;18644;48.700;9.210;2024-03-02T10:26:38;4.25;;;3.50;;
32138;SDS011;18644;48.700;9.210;2024-03-02T10:29:06;3.58;;;3.08;;
32138;SDS011;18644;48.700;9.210;2024-03-02T10:31:36;4.20;;;2.88;;
32138;SDS011;18644;48.700;9.210;2024-03-02T10:34:04;3.00;;;2.55;;
32138;SDS011;18644;48.700;9.210;2024-03-02T10:36:32;2.90;;;2.20;;
32138;SDS011;18644;48.700;9.210;2024-03-02T10:39:01;4.15;;;2.80;;
32138;SDS011;18644;48.700;9.210;2024-03-02T10:41:29;3.15;;;2.40;;
32138;SDS011;18644;48.700;9.210;2024-03-02T10:43:58;3.70;;;2.63;;
32138;SDS011;18644;48.700;9.210;2024-03-02T10:46:28;3.40;;;2.60;;
32138;SDS011;18644;48.700;9.210;2024-03-02T10:48:58;3.17;;;2.53;;
32138;SDS011;18644;48.700;9.210;2024-03-02T10:51:26;2.90;;;2.55;;
32138;SDS011;18644;48.700;9.210;2024-03-02T10:53:56;3.50;;;2.70;;
32138;SDS011;18644;48.700;9.210;2024-03-02T10:56:27;4.40;;;2.80;;
32138;SDS011;18644;48.700;9.210;2024-03-02T10:58:55;8.25;;;2.70;;
32138;SDS011;18644;48.700;9.210;2024-03-02T11:01:29;2.65;;;2.45;;
32138;SDS011;18644;48.700;9.210;2024-03-02T11:04:08;2.30;;;2.10;;
32138;SDS011;18644;48.700;9.210;2024-03-02T11:06:35;2.35;;;1.90;;
32138;SDS011;18644;48.700;9.210;2024-03-02T11:09:05;2.70;;;1.75;;
32138;SDS011;18644;48.700;9.210;2024-03-02T11:11:36;4.82;;;2.55;;
32138;SDS011;18644;48.700;9.210;2024-03-02T11:14:10;3.40;;;1.80;;
32138;SDS011;18644;48.700;9.210;2024-03-02T11:16:40;2.22;;;1.83;;
32138;SDS011;18644;48.700;9.210;2024-03-02T11:19:09;2.55;;;2.10;;
32138;SDS011;18644;48.700;9.210;2024-03-02T11:21:38;2.30;;;1.95;;
32138;SDS011;18644;48.700;9.210;2024-03-02T11:26:58;1.90;;;1.70;;
32138;SDS011;18644;48.700;9.210;2024-03-02T11:29:44;1.40;;;1.30;;
32138;SDS011;18644;48.700;9.210;2024-03-02T11:32:14;1.50;;;1.40;;
32138;SDS011;18644;48.700;9.210;2024-03-02T11:34:45;1.40;;;1.30;;
32138;SDS011;18644;48.700;9.210;2024-03-02T11:37:14;2.73;;;1.43;;
32138;SDS011;18644;48.700;9.210;2024-03-02T11:39:43;2.05;;;1.85;;
32138;SDS011;18644;48.700;9.210;2024-03-02T11:42:12;2.55;;;1.63;;
32138;SDS011;18644;48.700;9.210;2024-03-02T11:44:41;3.05;;;1.98;;
32138;SDS011;18644;48.700;9.210;2024-03-02T11:47:11;3.60;;;1.48;;
32138;SDS011;18644;48.700;9.210;2024-03-02T11:49:45;1.65;;;1.45;;
32138;SDS011;18644;48.700;9.210;2024-03-02T11:52:15;1.90;;;1.50;;
32138;SDS011;18644;48.700;9.210;2024-03-02T11:54:43;1.52;;;1.25;;
32138;SDS011;18644;48.700;9.210;2024-03-02T11:57:16;1.02;;;0.98;;
32138;SDS011;18644;48.700;9.210;2024-03-02T11:59:44;2.15;;;1.05;;
32138;SDS011;18644;48.700;9.210;2024-03-02T12:02:15;1.48;;;1.13;;
32138;SDS011;18644;48.700;9.210;2024-03-02T12:04:45;1.50;;;1.23;;
32138;SDS011;18644;48.700;9.210;2024-03-02T12:07:18;1.58;;;1.10;;
32138;SDS011;18644;48.700;9.210;2024-03-02T12:09:48;1.10;;;1.00;;
32138;SDS011;18644;48.700;9.210;2024-03-02T12:12:16;1.25;;;1.13;;
32138;SDS011;18644;48.700;9.210;2024-03-02T12:14:49;1.20;;;1.00;;
32138;SDS011;18644;48.700;9.210;2024-03-02T12:17:21;2.17;;;1.15;;
32138;SDS011;18644;48.700;9.210;2024-03-02T12:19:50;0.98;;;0.95;;
32138;SDS011;18644;48.700;9.210;2024-03-02T12:22:17;1.42;;;0.98;;
32138;SDS011;18644;48.700;9.210;2024-03-02T12:24:45;1.15;;;1.00;;
32138;SDS011;18644;48.700;9.210;2024-03-02T12:27:12;0.88;;;0.85;;
32138;SDS011;18644;48.700;9.210;2024-03-02T12:29:41;2.83;;;0.68;;
32138;SDS011;18644;48.700;9.210;2024-03-02T12:32:08;1.42;;;1.20;;
32138;SDS011;18644;48.700;9.210;2024-03-02T12:34:35;1.52;;;1.08;;
32138;SDS011;18644;48.700;9.210;2024-03-02T12:37:05;1.40;;;1.25;;
32138;SDS011;18644;48.700;9.210;2024-03-02T12:39:32;1.15;;;1.05;;
32138;SDS011;18644;48.700;9.210;2024-03-02T12:41:59;1.48;;;1.25;;
32138;SDS011;18644;48.700;9.210;2024-03-02T12:44:26;1.23;;;1.05;;
32138;SDS011;18644;48.700;9.210;2024-03-02T12:46:52;1.15;;;0.98;;
32138;SDS011;18644;48.700;9.210;2024-03-02T12:49:21;1.05;;;0.90;;
32138;SDS011;18644;48.700;9.210;2024-03-02T12:51:49;0.60;;;0.60;;
32138;SDS011;18644;48.700;9.210;2024-03-02T12:54:21;0.98;;;0.75;;
32138;SDS011;18644;48.700;9.210;2024-03-02T12:56:49;1.83;;;1.10;;
32138;SDS011;18644;48.700;9.210;2024-03-02T12:59:19;1.08;;;0.80;;
32138;SDS011;18644;48.700;9.210;2024-03-02T13:01:51;0.88;;;0.77;;
32138;SDS011;18644;48.700;9.210;2024-03-02T13:04:21;1.33;;;0.87;;
32138;SDS011;18644;48.700;9.210;2024-03-02T13:06:49;1.38;;;0.88;;
32138;SDS011;18644;48.700;9.210;2024-03-02T13:09:17;0.82;;;0.70;;
32138;SDS011;18644;48.700;9.210;2024-03-02T13:11:45;1.40;;;0.98;;
32138;SDS011;18644;48.700;9.210;2024-03-02T13:14:12;2.67;;;1.83;;
32138;SDS011;18644;48.700;9.210;2024-03-02T13:16:40;3.35;;;1.85;;
32138;SDS011;18644;48.700;9.210;2024-03-02T13:19:07;2.05;;;1.42;;
32138;SDS011;18644;48.700;9.210;2024-03-02T13:21:34;2.05;;;1.55;;
32138;SDS011;18644;48.700;9.210;2024-03-02T13:24:01;2.72;;;1.75;;
32138;SDS011;18644;48.700;9.210;2024-03-02T13:26:28;9.43;;;3.75;;
32138;SDS011;18644;48.700;9.210;2024-03-02T13:28:57;4.20;;;2.65;;
32138;SDS011;18644;48.700;9.210;2024-03-02T13:31:24;9.45;;;5.53;;
32138;SDS011;18644;48.700;9.210;2024-03-02T13:33:51;5.55;;;3.30;;
32138;SDS011;18644;48.700;9.210;2024-03-02T13:36:17;2.03;;;1.50;;
32138;SDS011;18644;48.700;9.210;2024-03-02T13:38:44;1.88;;;1.40;;
32138;SDS011;18644;48.700;9.210;2024-03-02T13:41:11;1.00;;;0.90;;
32138;SDS011;18644;48.700;9.210;2024-03-02T13:43:38;1.10;;;0.90;;
32138;SDS011;18644;48.700;9.210;2024-03-02T13:46:07;1.13;;;0.82;;
32138;SDS011;18644;48.700;9.210;2024-03-02T13:48:35;1.33;;;0.73;;
32138;SDS011;18644;48.700;9.210;2024-03-02T13:51:02;1.10;;;0.80;;
32138;SDS011;18644;48.700;9.210;2024-03-02T13:53:29;0.70;;;0.70;;
32138;SDS011;18644;48.700;9.210;2024-03-02T13:55:57;1.27;;;1.00;;
32138;SDS011;18644;48.700;9.210;2024-03-02T13:58:24;1.55;;;0.90;;
32138;SDS011;18644;48.700;9.210;2024-03-02T14:00:51;2.03;;;1.23;;
32138;SDS011;18644;48.700;9.210;2024-03-02T14:03:20;1.75;;;1.23;;
32138;SDS011;18644;48.700;9.210;2024-03-02T14:05:47;2.45;;;0.95;;
32138;SDS011;18644;48.700;9.210;2024-03-02T14:08:15;4.78;;;0.65;;
32138;SDS011;18644;48.700;9.210;2024-03-02T14:10:42;1.02;;;0.82;;
32138;SDS011;18644;48.700;9.210;2024-03-02T14:13:09;0.80;;;0.52;;
32138;SDS011;18644;48.700;9.210;2024-03-02T14:15:36;0.65;;;0.57;;
32138;SDS011;18644;48.700;9.210;2024-03-02T14:18:04;0.52;;;0.50;;
32138;SDS011;18644;48.700;9.210;2024-03-02T14:20:33;0.82;;;0.80;;
32138;SDS011;18644;48.700;9.210;2024-03-02T14:23:00;0.45;;;0.45;;
32138;SDS011;18644;48.700;9.210;2024-03-02T14:25:27;1.27;;;0.77;;
32138;SDS011;18644;48.700;9.210;2024-03-02T14:27:56;0.63;;;0.60;;
32138;SDS011;18644;48.700;9.210;2024-03-02T14:30:23;0.60;;;0.50;;
32138;SDS011;18644;48.700;9.210;2024-03-02T14:32:50;1.00;;;0.80;;
32138;SDS011;18644;48.700;9.210;2024-03-02T14:35:17;0.85;;;0.60;;
32138;SDS011;18644;48.700;9.210;2024-03-02T14:37:45;0.50;;;0.50;;
32138;SDS011;18644;48.700;9.210;2024-03-02T14:40:12;0.57;;;0.57;;
32138;SDS011;18644;48.700;9.210;2024-03-02T14:42:39;3.50;;;0.70;;
32138;SDS011;18644;48.700;9.210;2024-03-02T14:45:07;0.52;;;0.50;;
32138;SDS011;18644;48.700;9.210;2024-03-02T14:47:35;1.02;;;0.70;;
32138;SDS011;18644;48.700;9.210;2024-03-02T14:50:02;0.55;;;0.50;;
32138;SDS011;18644;48.700;9.210;2024-03-02T14:52:31;0.47;;;0.47;;
32138;SDS011;18644;48.700;9.210;2024-03-02T14:54:59;0.60;;;0.50;;